LiveATC.Net - Listen to live air traffic control over the Internet!


ICAO: EPGD  IATA: GDN   Airport: Gdansk Lech Walesa Airport
City: Gdansk
Country: Poland   Continent: Europe
EPGD METAR Weather: EPGD 280930Z 12006KT CAVOK 24/16 Q1017
EPGD Flight Activity (FlightAware)
EPGD Webcam: (Airport Webcams)
EPGD Tower/Approach
Feed Status: DOWN
Last heard on: 2016-08-12 04:43:03 (16 days 5 hours 43 minutes ago)
EPGD Tower/Approach Audio Archives
FacilityFrequency
Gdansk Approach127.275
Gdansk Tower118.100


NOTICE

Unauthorized use prohibited. See LiveATC.net Terms of Service


Find LiveATC Audio Streams


Airport/ARTCC Code

Frequency
(e.g., 124.400, 128.75)
Site-wide search

Browse LiveATC Feeds
LiveATC Coverage Map
Top 50 LiveATC Feeds
Bad Weather Areas

LiveATC FAQ
Offer a LiveATC Feed
Contact LiveATC.net
Press Inquiries

LiveATC on iPhone
LiveATC on Android

Windows Phone
Windows 8/10

LiveATC Mobile
(Mobile browser)

ATC Audio Archives
Interesting Recordings

LiveATC Forums


Home Page
About LiveATC.net
Make a Donation
LiveATC Store

Terms of Use
Privacy Policy

Canadian Air Freqs

AIRMETs/SIGMETs

FAA Airport Status
Nat'l Airspace Status
Arrival Demand Charts


Server Software By:
Icecast.org
Liquidsoap